sensor_id;sensor_type;location;lat;lon;timestamp;pressure;altitude;pressure_sealevel;temperature;humidity
38612;BME280;24368;52.156;20.788;2023-06-04T00:02:43;101130.16;;;10.32;72.70
38612;BME280;24368;52.156;20.788;2023-06-04T00:07:44;101125.16;;;10.26;73.36
38612;BME280;24368;52.156;20.788;2023-06-04T00:12:45;101123.92;;;10.27;73.12
38612;BME280;24368;52.156;20.788;2023-06-04T00:17:46;101124.52;;;10.26;73.43
38612;BME280;24368;52.156;20.788;2023-06-04T00:22:48;101121.23;;;10.21;74.00
38612;BME280;24368;52.156;20.788;2023-06-04T00:27:51;101124.42;;;10.21;74.11
38612;BME280;24368;52.156;20.788;2023-06-04T00:32:52;101121.53;;;10.11;74.08
38612;BME280;24368;52.156;20.788;2023-06-04T00:37:53;101119.96;;;10.07;74.69
38612;BME280;24368;52.156;20.788;2023-06-04T00:42:54;101118.85;;;10.01;75.07
38612;BME280;24368;52.156;20.788;2023-06-04T00:47:56;101117.59;;;9.95;75.45
38612;BME280;24368;52.156;20.788;2023-06-04T00:52:57;101115.21;;;9.86;75.78
38612;BME280;24368;52.156;20.788;2023-06-04T00:57:58;101117.63;;;9.87;75.91
38612;BME280;24368;52.156;20.788;2023-06-04T01:03:07;101115.94;;;9.78;76.68
38612;BME280;24368;52.156;20.788;2023-06-04T01:08:12;101116.20;;;9.58;77.47
38612;BME280;24368;52.156;20.788;2023-06-04T01:13:13;101120.08;;;9.55;77.89
38612;BME280;24368;52.156;20.788;2023-06-04T01:18:19;101120.21;;;9.35;78.95
38612;BME280;24368;52.156;20.788;2023-06-04T01:23:50;101126.50;;;9.38;79.44
38612;BME280;24368;52.156;20.788;2023-06-04T01:29:02;101129.92;;;9.24;79.29
38612;BME280;24368;52.156;20.788;2023-06-04T01:34:03;101126.50;;;8.95;80.87
38612;BME280;24368;52.156;20.788;2023-06-04T01:39:08;101127.05;;;8.86;81.90
38612;BME280;24368;52.156;20.788;2023-06-04T01:44:09;101125.23;;;8.74;81.67
38612;BME280;24368;52.156;20.788;2023-06-04T01:49:10;101120.67;;;8.52;82.66
38612;BME280;24368;52.156;20.788;2023-06-04T01:54:11;101120.73;;;8.38;83.76
38612;BME280;24368;52.156;20.788;2023-06-04T01:59:12;101114.84;;;8.43;83.45
38612;BME280;24368;52.156;20.788;2023-06-04T02:04:16;101114.04;;;8.51;83.21
38612;BME280;24368;52.156;20.788;2023-06-04T02:09:17;101114.48;;;8.48;83.47
38612;BME280;24368;52.156;20.788;2023-06-04T02:14:19;101114.73;;;8.33;83.35
38612;BME280;24368;52.156;20.788;2023-06-04T02:19:20;101113.78;;;8.27;83.54
38612;BME280;24368;52.156;20.788;2023-06-04T02:24:22;101112.88;;;8.25;84.30
38612;BME280;24368;52.156;20.788;2023-06-04T02:29:23;101115.27;;;8.20;83.83
38612;BME280;24368;52.156;20.788;2023-06-04T02:34:24;101116.29;;;8.08;84.17
38612;BME280;24368;52.156;20.788;2023-06-04T02:39:25;101114.43;;;8.12;83.93
38612;BME280;24368;52.156;20.788;2023-06-04T02:44:26;101116.30;;;8.08;85.22
38612;BME280;24368;52.156;20.788;2023-06-04T02:49:30;101112.89;;;8.21;84.24
38612;BME280;24368;52.156;20.788;2023-06-04T02:54:31;101112.64;;;8.24;84.66
38612;BME280;24368;52.156;20.788;2023-06-04T02:59:32;101115.98;;;8.20;84.61
38612;BME280;24368;52.156;20.788;2023-06-04T03:04:33;101115.38;;;8.29;84.88
38612;BME280;24368;52.156;20.788;2023-06-04T03:09:35;101117.45;;;8.34;84.52
38612;BME280;24368;52.156;20.788;2023-06-04T03:14:36;101113.79;;;8.36;84.22
38612;BME280;24368;52.156;20.788;2023-06-04T03:19:38;101116.21;;;8.37;84.54
38612;BME280;24368;52.156;20.788;2023-06-04T03:24:41;101118.60;;;8.15;85.71
38612;BME280;24368;52.156;20.788;2023-06-04T03:29:42;101122.91;;;8.12;85.82
38612;BME280;24368;52.156;20.788;2023-06-04T03:34:43;101121.29;;;8.03;86.12
38612;BME280;24368;52.156;20.788;2023-06-04T03:39:44;101123.64;;;7.98;85.75
38612;BME280;24368;52.156;20.788;2023-06-04T03:44:45;101126.91;;;8.23;83.38
38612;BME280;24368;52.156;20.788;2023-06-04T03:49:47;101126.35;;;8.49;83.50
38612;BME280;24368;52.156;20.788;2023-06-04T03:54:48;101122.48;;;8.64;81.66
38612;BME280;24368;52.156;20.788;2023-06-04T03:59:49;101124.55;;;8.58;80.93
38612;BME280;24368;52.156;20.788;2023-06-04T04:04:51;101130.38;;;8.77;80.30
38612;BME280;24368;52.156;20.788;2023-06-04T04:09:55;101124.03;;;8.91;79.04
38612;BME280;24368;52.156;20.788;2023-06-04T04:14:56;101127.77;;;8.99;78.74
38612;BME280;24368;52.156;20.788;2023-06-04T04:19:57;101129.72;;;9.10;78.65
38612;BME280;24368;52.156;20.788;2023-06-04T04:24:58;101132.27;;;9.21;78.31
38612;BME280;24368;52.156;20.788;2023-06-04T04:29:59;101129.58;;;9.35;77.17
38612;BME280;24368;52.156;20.788;2023-06-04T04:35:01;101122.73;;;9.45;76.59
38612;BME280;24368;52.156;20.788;2023-06-04T04:40:03;101117.27;;;9.68;73.30
38612;BME280;24368;52.156;20.788;2023-06-04T04:45:05;101117.70;;;9.90;70.37
38612;BME280;24368;52.156;20.788;2023-06-04T04:50:07;101118.13;;;10.08;69.83
38612;BME280;24368;52.156;20.788;2023-06-04T04:55:09;101120.20;;;10.23;69.40
38612;BME280;24368;52.156;20.788;2023-06-04T05:00:11;101115.63;;;10.37;69.62
38612;BME280;24368;52.156;20.788;2023-06-04T05:05:12;101114.11;;;10.46;70.47
38612;BME280;24368;52.156;20.788;2023-06-04T05:10:14;101115.82;;;10.59;71.46
38612;BME280;24368;52.156;20.788;2023-06-04T05:15:15;101113.32;;;10.63;72.06
38612;BME280;24368;52.156;20.788;2023-06-04T05:20:20;101116.77;;;10.80;70.59
38612;BME280;24368;52.156;20.788;2023-06-04T05:25:23;101117.44;;;10.94;70.02
38612;BME280;24368;52.156;20.788;2023-06-04T05:30:24;101115.93;;;11.17;69.17
38612;BME280;24368;52.156;20.788;2023-06-04T05:35:26;101117.11;;;11.34;68.76
38612;BME280;24368;52.156;20.788;2023-06-04T05:40:27;101114.33;;;11.57;68.57
38612;BME280;24368;52.156;20.788;2023-06-04T05:45:28;101111.95;;;11.77;67.30
38612;BME280;24368;52.156;20.788;2023-06-04T05:50:29;101111.80;;;11.87;67.35
38612;BME280;24368;52.156;20.788;2023-06-04T05:55:31;101110.27;;;12.03;66.14
38612;BME280;24368;52.156;20.788;2023-06-04T06:00:32;101114.22;;;12.21;64.66
38612;BME280;24368;52.156;20.788;2023-06-04T06:05:33;101114.21;;;12.39;62.97
38612;BME280;24368;52.156;20.788;2023-06-04T06:10:34;101119.65;;;12.53;61.13
38612;BME280;24368;52.156;20.788;2023-06-04T06:15:35;101122.56;;;12.59;61.70
38612;BME280;24368;52.156;20.788;2023-06-04T06:20:36;101129.63;;;12.74;59.09
38612;BME280;24368;52.156;20.788;2023-06-04T06:25:37;101126.70;;;12.91;58.14
38612;BME280;24368;52.156;20.788;2023-06-04T06:30:41;101125.46;;;13.00;57.24
38612;BME280;24368;52.156;20.788;2023-06-04T06:35:42;101128.23;;;13.12;56.56
38612;BME280;24368;52.156;20.788;2023-06-04T06:40:44;101130.05;;;13.27;55.02
38612;BME280;24368;52.156;20.788;2023-06-04T06:45:45;101129.93;;;13.39;55.65
38612;BME280;24368;52.156;20.788;2023-06-04T06:50:46;101137.52;;;13.54;53.91
38612;BME280;24368;52.156;20.788;2023-06-04T06:55:47;101132.17;;;13.58;54.17
38612;BME280;24368;52.156;20.788;2023-06-04T07:00:48;101136.25;;;13.63;54.53
38612;BME280;24368;52.156;20.788;2023-06-04T07:05:50;101138.75;;;13.64;53.48
38612;BME280;24368;52.156;20.788;2023-06-04T07:10:51;101139.86;;;13.60;53.90
38612;BME280;24368;52.156;20.788;2023-06-04T07:15:53;101141.23;;;13.61;54.02
38612;BME280;24368;52.156;20.788;2023-06-04T07:20:54;101142.81;;;13.59;50.49
38612;BME280;24368;52.156;20.788;2023-06-04T07:25:55;101137.75;;;13.76;49.99
38612;BME280;24368;52.156;20.788;2023-06-04T07:30:57;101135.05;;;13.99;49.96
38612;BME280;24368;52.156;20.788;2023-06-04T07:35:59;101137.99;;;14.12;49.19
38612;BME280;24368;52.156;20.788;2023-06-04T07:41:00;101139.78;;;14.10;49.43
38612;BME280;24368;52.156;20.788;2023-06-04T07:46:02;101133.83;;;14.02;49.66
38612;BME280;24368;52.156;20.788;2023-06-04T07:51:04;101135.48;;;14.20;49.60
38612;BME280;24368;52.156;20.788;2023-06-04T07:56:05;101139.14;;;14.52;47.83
38612;BME280;24368;52.156;20.788;2023-06-04T08:01:07;101133.11;;;14.64;45.89
38612;BME280;24368;52.156;20.788;2023-06-04T08:06:09;101135.99;;;14.82;46.17
38612;BME280;24368;52.156;20.788;2023-06-04T08:11:11;101134.02;;;14.77;45.51
38612;BME280;24368;52.156;20.788;2023-06-04T08:16:13;101127.00;;;14.66;46.86
38612;BME280;24368;52.156;20.788;2023-06-04T08:21:14;101119.77;;;14.73;48.17
38612;BME280;24368;52.156;20.788;2023-06-04T08:26:18;101121.61;;;14.92;48.76
38612;BME280;24368;52.156;20.788;2023-06-04T08:31:20;101124.90;;;15.11;46.27
38612;BME280;24368;52.156;20.788;2023-06-04T08:36:22;101122.49;;;15.23;44.98
38612;BME280;24368;52.156;20.788;2023-06-04T08:41:44;101125.48;;;15.27;44.29
38612;BME280;24368;52.156;20.788;2023-06-04T08:46:47;101114.40;;;15.32;42.80
38612;BME280;24368;52.156;20.788;2023-06-04T08:51:51;101108.25;;;15.42;44.07
38612;BME280;24368;52.156;20.788;2023-06-04T08:56:52;101109.20;;;15.77;43.76
38612;BME280;24368;52.156;20.788;2023-06-04T09:01:56;101113.23;;;15.78;44.62
38612;BME280;24368;52.156;20.788;2023-06-04T09:07:01;101112.35;;;15.97;44.09
38612;BME280;24368;52.156;20.788;2023-06-04T09:12:12;101110.44;;;15.90;42.04
38612;BME280;24368;52.156;20.788;2023-06-04T09:17:24;101106.01;;;16.03;42.10
38612;BME280;24368;52.156;20.788;2023-06-04T09:22:36;101108.51;;;16.04;41.94
38612;BME280;24368;52.156;20.788;2023-06-04T09:27:39;101107.08;;;16.01;41.22
38612;BME280;24368;52.156;20.788;2023-06-04T09:32:40;101105.47;;;16.26;38.25
38612;BME280;24368;52.156;20.788;2023-06-04T09:37:50;101100.74;;;16.53;38.19
38612;BME280;24368;52.156;20.788;2023-06-04T09:42:52;101092.20;;;16.75;39.78
38612;BME280;24368;52.156;20.788;2023-06-04T09:48:00;101092.90;;;16.98;40.91
38612;BME280;24368;52.156;20.788;2023-06-04T09:53:12;101090.05;;;17.09;41.07
38612;BME280;24368;52.156;20.788;2023-06-04T09:58:14;101093.08;;;17.22;41.31
38612;BME280;24368;52.156;20.788;2023-06-04T10:03:16;101088.54;;;17.30;40.55
38612;BME280;24368;52.156;20.788;2023-06-04T10:08:22;101079.28;;;17.50;39.50
38612;BME280;24368;52.156;20.788;2023-06-04T10:13:26;101076.77;;;17.74;40.04
38612;BME280;24368;52.156;20.788;2023-06-04T10:18:28;101075.39;;;17.91;39.94
38612;BME280;24368;52.156;20.788;2023-06-04T10:23:30;101065.69;;;17.82;38.29
38612;BME280;24368;52.156;20.788;2023-06-04T10:28:32;101062.64;;;17.97;37.37
38612;BME280;24368;52.156;20.788;2023-06-04T10:33:35;101061.19;;;18.06;36.45
38612;BME280;24368;52.156;20.788;2023-06-04T10:38:45;101053.32;;;18.14;37.70
38612;BME280;24368;52.156;20.788;2023-06-04T10:43:51;101056.45;;;18.42;37.90
38612;BME280;24368;52.156;20.788;2023-06-04T10:48:53;101051.38;;;18.60;37.76
38612;BME280;24368;52.156;20.788;2023-06-04T10:53:55;101045.95;;;18.74;37.06
38612;BME280;24368;52.156;20.788;2023-06-04T10:58:56;101044.19;;;18.91;34.87
38612;BME280;24368;52.156;20.788;2023-06-04T11:03:58;101048.48;;;18.86;33.07
38612;BME280;24368;52.156;20.788;2023-06-04T11:09:03;101049.25;;;18.95;34.19
38612;BME280;24368;52.156;20.788;2023-06-04T11:14:11;101048.70;;;19.30;34.08
38612;BME280;24368;52.156;20.788;2023-06-04T11:19:14;101045.68;;;19.57;33.89
38612;BME280;24368;52.156;20.788;2023-06-04T11:24:16;101044.13;;;20.08;33.45
38612;BME280;24368;52.156;20.788;2023-06-04T11:29:17;101045.63;;;20.42;32.26
38612;BME280;24368;52.156;20.788;2023-06-04T11:34:25;101044.79;;;20.45;31.36
38612;BME280;24368;52.156;20.788;2023-06-04T11:39:34;101045.45;;;20.77;30.59
38612;BME280;24368;52.156;20.788;2023-06-04T11:44:36;101043.26;;;21.07;29.51
38612;BME280;24368;52.156;20.788;2023-06-04T11:49:37;101040.30;;;20.86;28.53
38612;BME280;24368;52.156;20.788;2023-06-04T11:54:39;101038.98;;;20.85;30.40
38612;BME280;24368;52.156;20.788;2023-06-04T11:59:41;101033.86;;;21.14;29.93
38612;BME280;24368;52.156;20.788;2023-06-04T12:04:43;101033.61;;;20.88;30.32
38612;BME280;24368;52.156;20.788;2023-06-04T12:09:44;101028.73;;;20.70;31.56
38612;BME280;24368;52.156;20.788;2023-06-04T12:14:45;101032.22;;;20.68;31.47
38612;BME280;24368;52.156;20.788;2023-06-04T12:19:47;101031.83;;;20.86;30.68
38612;BME280;24368;52.156;20.788;2023-06-04T12:24:52;101028.73;;;20.83;30.46
38612;BME280;24368;52.156;20.788;2023-06-04T12:30:04;101028.25;;;20.36;31.68
38612;BME280;24368;52.156;20.788;2023-06-04T12:35:09;101031.65;;;20.13;30.65
38612;BME280;24368;52.156;20.788;2023-06-04T12:40:10;101030.73;;;20.06;31.96
38612;BME280;24368;52.156;20.788;2023-06-04T12:45:13;101029.60;;;20.08;32.41
38612;BME280;24368;52.156;20.788;2023-06-04T12:50:15;101029.45;;;20.21;31.79
38612;BME280;24368;52.156;20.788;2023-06-04T12:55:16;101026.70;;;20.24;31.16
38612;BME280;24368;52.156;20.788;2023-06-04T13:00:17;101023.99;;;20.29;30.12
38612;BME280;24368;52.156;20.788;2023-06-04T13:05:18;101024.94;;;20.16;30.23
38612;BME280;24368;52.156;20.788;2023-06-04T13:10:19;101016.58;;;20.24;30.65
38612;BME280;24368;52.156;20.788;2023-06-04T13:15:21;101018.73;;;20.18;30.42
38612;BME280;24368;52.156;20.788;2023-06-04T13:20:23;101017.20;;;20.18;31.19
38612;BME280;24368;52.156;20.788;2023-06-04T13:25:24;101013.02;;;20.25;30.23
38612;BME280;24368;52.156;20.788;2023-06-04T13:30:25;101006.80;;;20.26;30.71
38612;BME280;24368;52.156;20.788;2023-06-04T13:35:27;101006.52;;;20.31;32.09
38612;BME280;24368;52.156;20.788;2023-06-04T13:40:28;101007.53;;;20.27;31.20
38612;BME280;24368;52.156;20.788;2023-06-04T13:45:29;100998.91;;;20.28;30.58
38612;BME280;24368;52.156;20.788;2023-06-04T13:50:31;100995.17;;;20.49;31.02
38612;BME280;24368;52.156;20.788;2023-06-04T13:55:33;101000.89;;;20.70;31.42
38612;BME280;24368;52.156;20.788;2023-06-04T14:00:34;101000.98;;;20.70;29.66
38612;BME280;24368;52.156;20.788;2023-06-04T14:05:36;100992.89;;;20.80;30.06
38612;BME280;24368;52.156;20.788;2023-06-04T14:10:37;100989.54;;;20.97;30.66
38612;BME280;24368;52.156;20.788;2023-06-04T14:15:41;100988.25;;;21.16;29.44
38612;BME280;24368;52.156;20.788;2023-06-04T14:20:42;100987.42;;;21.23;28.65
38612;BME280;24368;52.156;20.788;2023-06-04T14:25:44;100984.92;;;21.02;28.25
38612;BME280;24368;52.156;20.788;2023-06-04T14:30:45;100984.70;;;21.06;27.73
38612;BME280;24368;52.156;20.788;2023-06-04T14:35:46;100981.65;;;20.96;26.67
38612;BME280;24368;52.156;20.788;2023-06-04T14:40:47;100981.35;;;20.87;27.50
38612;BME280;24368;52.156;20.788;2023-06-04T14:45:49;100981.72;;;20.83;27.69
38612;BME280;24368;52.156;20.788;2023-06-04T14:50:50;100979.58;;;20.93;27.98
38612;BME280;24368;52.156;20.788;2023-06-04T14:55:54;100979.54;;;20.92;28.17
38612;BME280;24368;52.156;20.788;2023-06-04T15:00:56;100974.38;;;20.97;28.11
38612;BME280;24368;52.156;20.788;2023-06-04T15:06:00;100974.62;;;20.99;28.23
38612;BME280;24368;52.156;20.788;2023-06-04T15:11:02;100972.02;;;20.93;27.90
38612;BME280;24368;52.156;20.788;2023-06-04T15:16:03;100967.83;;;21.04;28.75
38612;BME280;24368;52.156;20.788;2023-06-04T15:21:04;100963.15;;;21.20;29.53
38612;BME280;24368;52.156;20.788;2023-06-04T15:26:06;100959.71;;;21.26;29.24
38612;BME280;24368;52.156;20.788;2023-06-04T15:31:07;100959.09;;;21.38;28.23
38612;BME280;24368;52.156;20.788;2023-06-04T15:36:08;100954.23;;;21.59;27.94
38612;BME280;24368;52.156;20.788;2023-06-04T15:41:09;100953.52;;;21.68;27.52
38612;BME280;24368;52.156;20.788;2023-06-04T15:46:10;100950.02;;;21.71;27.66
38612;BME280;24368;52.156;20.788;2023-06-04T15:51:11;100947.39;;;21.46;27.38
38612;BME280;24368;52.156;20.788;2023-06-04T15:56:13;100944.46;;;21.17;29.36
38612;BME280;24368;52.156;20.788;2023-06-04T16:01:17;100946.17;;;20.91;29.18
38612;BME280;24368;52.156;20.788;2023-06-04T16:06:18;100942.95;;;20.76;29.32
38612;BME280;24368;52.156;20.788;2023-06-04T16:11:19;100943.77;;;20.70;29.36
38612;BME280;24368;52.156;20.788;2023-06-04T16:16:22;100943.73;;;20.57;29.39
38612;BME280;24368;52.156;20.788;2023-06-04T16:21:25;100942.35;;;20.39;29.54
38612;BME280;24368;52.156;20.788;2023-06-04T16:26:26;100944.45;;;20.30;30.16
38612;BME280;24368;52.156;20.788;2023-06-04T16:31:27;100941.26;;;20.25;30.86
38612;BME280;24368;52.156;20.788;2023-06-04T16:36:29;100942.29;;;20.24;31.91
38612;BME280;24368;52.156;20.788;2023-06-04T16:41:31;100938.77;;;20.20;31.98
38612;BME280;24368;52.156;20.788;2023-06-04T16:46:33;100935.77;;;20.13;32.56
38612;BME280;24368;52.156;20.788;2023-06-04T16:51:34;100939.20;;;20.09;31.80
38612;BME280;24368;52.156;20.788;2023-06-04T16:56:37;100936.02;;;20.00;31.44
38612;BME280;24368;52.156;20.788;2023-06-04T17:01:38;100938.59;;;19.90;32.70
38612;BME280;24368;52.156;20.788;2023-06-04T17:06:41;100941.43;;;19.89;32.49
38612;BME280;24368;52.156;20.788;2023-06-04T17:11:42;100939.31;;;19.84;31.92
38612;BME280;24368;52.156;20.788;2023-06-04T17:16:44;100940.54;;;19.80;32.36
38612;BME280;24368;52.156;20.788;2023-06-04T17:21:46;100942.09;;;19.75;33.08
38612;BME280;24368;52.156;20.788;2023-06-04T17:26:47;100942.56;;;19.71;33.41
38612;BME280;24368;52.156;20.788;2023-06-04T17:31:49;100946.55;;;19.63;32.93
38612;BME280;24368;52.156;20.788;2023-06-04T17:36:52;100946.91;;;19.56;32.50
38612;BME280;24368;52.156;20.788;2023-06-04T17:41:53;100947.07;;;19.48;33.07
38612;BME280;24368;52.156;20.788;2023-06-04T17:46:55;100949.58;;;19.40;32.42
38612;BME280;24368;52.156;20.788;2023-06-04T17:51:57;100948.42;;;19.32;32.75
38612;BME280;24368;52.156;20.788;2023-06-04T17:56:59;100950.58;;;19.26;33.65
38612;BME280;24368;52.156;20.788;2023-06-04T18:02:01;100949.92;;;19.16;34.44
38612;BME280;24368;52.156;20.788;2023-06-04T18:07:04;100954.27;;;19.06;34.41
38612;BME280;24368;52.156;20.788;2023-06-04T18:12:06;100956.86;;;18.95;35.00
38612;BME280;24368;52.156;20.788;2023-06-04T18:17:11;100957.07;;;18.75;36.31
38612;BME280;24368;52.156;20.788;2023-06-04T18:22:14;100965.41;;;18.73;35.97
38612;BME280;24368;52.156;20.788;2023-06-04T18:27:15;100969.91;;;18.68;36.00
38612;BME280;24368;52.156;20.788;2023-06-04T18:32:17;100972.02;;;18.52;36.43
38612;BME280;24368;52.156;20.788;2023-06-04T18:37:19;100971.71;;;18.38;37.86
38612;BME280;24368;52.156;20.788;2023-06-04T18:42:25;100977.89;;;18.24;37.80
38612;BME280;24368;52.156;20.788;2023-06-04T18:47:26;100979.88;;;18.16;37.45
38612;BME280;24368;52.156;20.788;2023-06-04T18:52:28;100985.76;;;18.09;38.10
38612;BME280;24368;52.156;20.788;2023-06-04T18:57:30;100990.14;;;17.95;38.68
38612;BME280;24368;52.156;20.788;2023-06-04T19:02:38;100994.02;;;17.85;39.12
38612;BME280;24368;52.156;20.788;2023-06-04T19:07:41;101001.05;;;17.77;39.09
38612;BME280;24368;52.156;20.788;2023-06-04T19:12:43;101004.68;;;17.66;39.76
38612;BME280;24368;52.156;20.788;2023-06-04T19:17:44;101011.89;;;17.53;40.59
38612;BME280;24368;52.156;20.788;2023-06-04T19:22:45;101014.66;;;17.41;40.65
38612;BME280;24368;52.156;20.788;2023-06-04T19:27:48;101021.20;;;17.05;41.94
38612;BME280;24368;52.156;20.788;2023-06-04T19:32:54;101024.64;;;16.78;43.07
38612;BME280;24368;52.156;20.788;2023-06-04T19:37:57;101024.17;;;16.65;43.72
38612;BME280;24368;52.156;20.788;2023-06-04T19:43:00;101028.48;;;16.47;44.33
38612;BME280;24368;52.156;20.788;2023-06-04T19:48:02;101029.77;;;16.45;45.66
38612;BME280;24368;52.156;20.788;2023-06-04T19:53:03;101028.52;;;16.32;45.71
38612;BME280;24368;52.156;20.788;2023-06-04T19:58:05;101025.64;;;16.16;46.63
38612;BME280;24368;52.156;20.788;2023-06-04T20:03:07;101033.56;;;15.91;47.88
38612;BME280;24368;52.156;20.788;2023-06-04T20:08:08;101039.07;;;15.59;49.07
38612;BME280;24368;52.156;20.788;2023-06-04T20:13:09;101041.56;;;15.31;49.25
38612;BME280;24368;52.156;20.788;2023-06-04T20:18:12;101040.73;;;15.36;48.24
38612;BME280;24368;52.156;20.788;2023-06-04T20:23:15;101036.77;;;15.26;47.73
38612;BME280;24368;52.156;20.788;2023-06-04T20:28:17;101035.77;;;15.23;48.65
38612;BME280;24368;52.156;20.788;2023-06-04T20:33:19;101038.77;;;15.28;49.37
38612;BME280;24368;52.156;20.788;2023-06-04T20:38:22;101038.73;;;15.12;50.36
38612;BME280;24368;52.156;20.788;2023-06-04T20:43:23;101042.20;;;15.01;52.03
38612;BME280;24368;52.156;20.788;2023-06-04T20:48:24;101042.90;;;14.68;53.61
38612;BME280;24368;52.156;20.788;2023-06-04T20:53:26;101049.00;;;14.58;54.11
38612;BME280;24368;52.156;20.788;2023-06-04T20:58:27;101044.02;;;14.60;54.62
38612;BME280;24368;52.156;20.788;2023-06-04T21:03:29;101049.42;;;14.40;53.93
38612;BME280;24368;52.156;20.788;2023-06-04T21:08:30;101050.71;;;14.38;55.10
38612;BME280;24368;52.156;20.788;2023-06-04T21:13:31;101045.52;;;14.36;55.67
38612;BME280;24368;52.156;20.788;2023-06-04T21:18:32;101044.23;;;14.27;57.06
38612;BME280;24368;52.156;20.788;2023-06-04T21:23:33;101051.45;;;14.14;56.64
38612;BME280;24368;52.156;20.788;2023-06-04T21:28:34;101055.56;;;13.95;57.16
38612;BME280;24368;52.156;20.788;2023-06-04T21:33:35;101058.50;;;13.90;58.23
38612;BME280;24368;52.156;20.788;2023-06-04T21:38:36;101061.42;;;13.93;59.75
38612;BME280;24368;52.156;20.788;2023-06-04T21:43:37;101063.87;;;13.67;62.52
38612;BME280;24368;52.156;20.788;2023-06-04T21:48:39;101068.09;;;13.49;64.05
38612;BME280;24368;52.156;20.788;2023-06-04T21:53:40;101070.11;;;13.37;66.10
38612;BME280;24368;52.156;20.788;2023-06-04T21:58:41;101078.50;;;13.42;66.05
38612;BME280;24368;52.156;20.788;2023-06-04T22:03:42;101080.42;;;13.15;67.04
38612;BME280;24368;52.156;20.788;2023-06-04T22:08:43;101077.65;;;13.29;67.22
38612;BME280;24368;52.156;20.788;2023-06-04T22:13:44;101079.72;;;13.17;67.71
38612;BME280;24368;52.156;20.788;2023-06-04T22:18:45;101081.77;;;13.06;67.69
38612;BME280;24368;52.156;20.788;2023-06-04T22:23:47;101079.65;;;13.00;67.49
38612;BME280;24368;52.156;20.788;2023-06-04T22:28:48;101083.70;;;12.77;68.49
38612;BME280;24368;52.156;20.788;2023-06-04T22:33:49;101083.52;;;12.64;68.47
38612;BME280;24368;52.156;20.788;2023-06-04T22:38:50;101083.02;;;12.46;69.42
38612;BME280;24368;52.156;20.788;2023-06-04T22:43:51;101085.52;;;12.31;69.65
38612;BME280;24368;52.156;20.788;2023-06-04T22:48:52;101087.86;;;12.12;70.55
38612;BME280;24368;52.156;20.788;2023-06-04T22:53:53;101086.00;;;12.11;70.60
38612;BME280;24368;52.156;20.788;2023-06-04T22:58:55;101084.65;;;12.20;70.10
38612;BME280;24368;52.156;20.788;2023-06-04T23:03:56;101091.08;;;12.17;70.91
38612;BME280;24368;52.156;20.788;2023-06-04T23:08:58;101087.73;;;12.17;70.36
38612;BME280;24368;52.156;20.788;2023-06-04T23:13:59;101089.55;;;12.07;70.37
38612;BME280;24368;52.156;20.788;2023-06-04T23:19:00;101089.56;;;11.79;71.68
38612;BME280;24368;52.156;20.788;2023-06-04T23:24:01;101091.26;;;11.81;71.69
38612;BME280;24368;52.156;20.788;2023-06-04T23:29:02;101092.66;;;11.84;72.06
38612;BME280;24368;52.156;20.788;2023-06-04T23:34:03;101095.84;;;11.89;72.04
38612;BME280;24368;52.156;20.788;2023-06-04T23:39:04;101096.20;;;11.81;71.61
38612;BME280;24368;52.156;20.788;2023-06-04T23:44:05;101099.55;;;11.57;72.72
38612;BME280;24368;52.156;20.788;2023-06-04T23:49:06;101093.44;;;11.58;73.53
38612;BME280;24368;52.156;20.788;2023-06-04T23:54:07;101100.21;;;11.65;73.25
38612;BME280;24368;52.156;20.788;2023-06-04T23:59:08;101098.98;;;11.49;73.74
